Time;durP1;ratioP1;P1;durP2;ratioP2;P2;SDS_P1;SDS_P2;PMS_P1;PMS_P2;Temp;Humidity;BMP_temperature;BMP_pressure;BME280_temperature;BME280_humidity;BME280_pressure;Samples;Min_cycle;Max_cycle;Signal;HPM_P1;HPM_P2
2022/10/26 00:01:42;;;;;;;3.17;2.63;;;4.00;99.90;;;;;;4802472;29;20449;-75
2022/10/26 00:04:09;;;;;;;5.50;2.53;;;4.10;99.90;;;;;;4801164;29;20055;-75
2022/10/26 00:06:36;;;;;;;3.70;2.08;;;4.20;99.90;;;;;;4803400;29;20051;-75
2022/10/26 00:09:04;;;;;;;4.07;1.98;;;4.10;99.90;;;;;;4804134;29;20047;-76
2022/10/26 00:11:32;;;;;;;2.33;2.13;;;4.20;99.90;;;;;;4806214;29;20043;-76
2022/10/26 00:13:59;;;;;;;2.22;2.03;;;4.20;99.90;;;;;;4804328;29;20141;-76
2022/10/26 00:16:27;;;;;;;3.05;2.05;;;4.20;99.90;;;;;;4802843;29;20047;-76
2022/10/26 00:18:54;;;;;;;2.25;1.88;;;4.20;99.90;;;;;;4804943;29;20560;-76
2022/10/26 00:21:22;;;;;;;2.47;1.80;;;4.20;99.90;;;;;;4799629;29;20058;-76
2022/10/26 00:23:49;;;;;;;4.13;1.80;;;4.20;99.90;;;;;;4804406;29;20082;-77
2022/10/26 00:26:16;;;;;;;2.45;2.20;;;4.20;99.90;;;;;;4816657;29;20524;-76
2022/10/26 00:28:45;;;;;;;3.35;2.22;;;4.20;99.90;;;;;;4804436;29;20543;-75
2022/10/26 00:31:14;;;;;;;2.55;2.30;;;4.20;99.90;;;;;;4801466;29;20080;-74
2022/10/26 00:33:42;;;;;;;4.22;2.00;;;4.20;99.90;;;;;;4802650;29;20243;-75
2022/10/26 00:36:10;;;;;;;2.58;2.38;;;4.20;99.90;;;;;;4801386;29;20138;-75
2022/10/26 00:38:37;;;;;;;3.78;2.40;;;4.30;99.90;;;;;;4804970;29;20047;-75
2022/10/26 00:41:04;;;;;;;3.63;2.05;;;4.30;99.90;;;;;;4799407;29;20073;-75
2022/10/26 00:43:37;;;;;;;1.90;1.77;;;4.20;99.90;;;;;;4797800;29;20050;-75
2022/10/26 00:46:09;;;;;;;2.58;2.30;;;4.20;99.90;;;;;;4802303;29;20531;-75
2022/10/26 00:48:39;;;;;;;3.63;2.90;;;4.20;99.90;;;;;;4804175;29;20607;-75
2022/10/26 00:51:10;;;;;;;2.80;2.28;;;4.20;99.90;;;;;;4798387;29;20436;-75
2022/10/26 00:53:38;;;;;;;2.00;1.85;;;4.20;99.90;;;;;;4802862;29;20062;-75
2022/10/26 00:56:05;;;;;;;2.10;1.88;;;4.20;99.90;;;;;;4817544;29;20078;-75
2022/10/26 00:58:34;;;;;;;3.17;2.00;;;4.20;99.90;;;;;;4804415;29;20523;-75
2022/10/26 01:01:01;;;;;;;3.08;2.10;;;4.20;99.90;;;;;;4798642;29;20737;-75
2022/10/26 01:03:31;;;;;;;2.30;2.20;;;4.20;99.90;;;;;;4800479;29;20139;-75
2022/10/26 01:05:58;;;;;;;2.38;2.17;;;4.30;99.90;;;;;;4804494;29;20050;-76
2022/10/26 01:08:27;;;;;;;4.57;2.90;;;4.30;99.90;;;;;;4804718;29;20047;-76
2022/10/26 01:10:55;;;;;;;3.33;2.20;;;4.30;99.90;;;;;;4803570;29;20127;-77
2022/10/26 01:13:23;;;;;;;2.83;2.35;;;4.30;99.90;;;;;;4804710;29;20047;-77
2022/10/26 01:15:56;;;;;;;2.65;2.45;;;4.30;99.90;;;;;;4803817;29;20070;-77
2022/10/26 01:18:32;;;;;;;2.25;2.05;;;4.30;99.90;;;;;;4803119;29;20153;-75
2022/10/26 01:21:23;;;;;;;3.35;2.60;;;4.40;99.90;;;;;;4800270;29;20065;-76
2022/10/26 01:24:07;;;;;;;2.00;1.90;;;4.30;99.90;;;;;;4802630;29;20108;-76
2022/10/26 01:26:51;;;;;;;2.15;1.95;;;4.30;99.90;;;;;;4803369;29;20055;-76
2022/10/26 01:29:36;;;;;;;2.55;2.30;;;4.30;99.90;;;;;;4802056;29;20585;-75
2022/10/26 01:32:11;;;;;;;2.58;1.92;;;4.30;99.90;;;;;;4796962;29;20428;-75
2022/10/26 01:34:44;;;;;;;2.90;2.13;;;4.30;99.90;;;;;;4818144;29;20057;-75
2022/10/26 01:37:15;;;;;;;2.35;2.15;;;4.30;99.90;;;;;;4803605;29;20065;-75
2022/10/26 01:39:48;;;;;;;3.40;2.92;;;4.30;99.90;;;;;;4800878;29;20082;-75
2022/10/26 01:42:18;;;;;;;2.70;2.33;;;4.30;99.90;;;;;;4816721;29;20584;-76
2022/10/26 01:44:52;;;;;;;2.58;2.38;;;4.30;99.90;;;;;;4805065;29;20078;-76
2022/10/26 01:47:22;;;;;;;2.55;2.35;;;4.30;99.90;;;;;;4802885;29;20074;-75
2022/10/26 01:49:56;;;;;;;3.33;2.10;;;4.30;99.90;;;;;;4798856;29;20043;-76
2022/10/26 01:52:24;;;;;;;3.13;2.10;;;4.40;99.90;;;;;;4794487;29;20057;-75
2022/10/26 01:54:52;;;;;;;2.58;2.38;;;4.30;99.90;;;;;;4799899;29;20055;-75
2022/10/26 01:57:21;;;;;;;2.85;2.42;;;4.30;99.90;;;;;;4813230;29;20111;-75
2022/10/26 02:00:02;;;;;;;3.05;2.00;;;4.40;99.90;;;;;;4800002;29;20055;-75
2022/10/26 02:02:57;;;;;;;3.05;2.75;;;4.40;99.90;;;;;;4796135;29;20524;-76
2022/10/26 02:05:32;;;;;;;3.42;2.72;;;4.40;99.90;;;;;;4802779;29;20154;-76
2022/10/26 02:08:20;;;;;;;2.10;1.90;;;4.40;99.90;;;;;;4802185;29;20089;-76
2022/10/26 02:10:56;;;;;;;2.40;2.20;;;4.40;99.90;;;;;;4810801;29;20069;-76
2022/10/26 02:13:33;;;;;;;3.80;3.20;;;4.40;99.90;;;;;;4795004;29;20061;-76
2022/10/26 02:16:08;;;;;;;2.72;2.38;;;4.40;99.90;;;;;;4800558;29;20722;-77
2022/10/26 02:18:42;;;;;;;4.35;3.90;;;4.40;99.90;;;;;;4794202;29;20061;-76
2022/10/26 02:21:16;;;;;;;4.88;3.63;;;4.40;99.90;;;;;;4798353;29;20085;-77
2022/10/26 02:23:47;;;;;;;4.07;3.67;;;4.40;99.90;;;;;;4803724;29;20090;-76
2022/10/26 02:26:17;;;;;;;2.65;2.30;;;4.40;99.90;;;;;;4815467;29;20145;-76
2022/10/26 02:28:48;;;;;;;3.28;2.80;;;4.40;99.90;;;;;;4801912;29;20577;-75
2022/10/26 02:31:17;;;;;;;2.60;2.40;;;4.40;99.90;;;;;;4799810;29;20570;-75
2022/10/26 02:33:48;;;;;;;2.75;2.55;;;4.40;99.90;;;;;;4791075;29;20052;-75
2022/10/26 02:36:21;;;;;;;3.13;2.85;;;4.40;99.90;;;;;;4801938;29;20055;-76
2022/10/26 02:38:49;;;;;;;4.18;3.63;;;4.40;99.90;;;;;;4802237;29;20061;-76
2022/10/26 02:41:18;;;;;;;3.47;3.17;;;4.40;99.90;;;;;;4799260;29;20050;-76
2022/10/26 02:43:50;;;;;;;3.28;3.00;;;4.40;99.90;;;;;;4786948;29;20130;-76
2022/10/26 02:46:20;;;;;;;6.15;5.22;;;4.40;99.90;;;;;;4802586;29;20469;-77
2022/10/26 02:48:48;;;;;;;6.35;4.35;;;4.40;99.90;;;;;;4801435;29;20528;-77
2022/10/26 02:51:20;;;;;;;4.25;3.85;;;4.50;99.90;;;;;;4813297;29;20062;-77
2022/10/26 02:53:51;;;;;;;4.40;3.80;;;4.50;99.90;;;;;;4800204;29;20138;-75
2022/10/26 02:56:22;;;;;;;4.65;4.22;;;4.50;99.90;;;;;;4802413;29;20065;-76
2022/10/26 02:58:53;;;;;;;5.60;4.03;;;4.50;99.90;;;;;;4802249;29;20141;-76
2022/10/26 03:01:21;;;;;;;4.78;4.32;;;4.50;99.90;;;;;;4799551;29;20107;-76
2022/10/26 03:03:51;;;;;;;4.53;4.20;;;4.60;99.90;;;;;;4802752;29;20054;-76
2022/10/26 03:06:23;;;;;;;7.47;4.45;;;4.60;99.90;;;;;;4806169;29;20145;-75
2022/10/26 03:08:51;;;;;;;6.53;5.38;;;4.60;99.90;;;;;;4805254;29;20153;-78
2022/10/26 03:11:18;;;;;;;5.60;4.97;;;4.70;99.90;;;;;;4804198;29;20052;-76
2022/10/26 03:13:48;;;;;;;5.47;4.97;;;4.70;99.90;;;;;;4805907;29;20062;-77
2022/10/26 03:16:15;;;;;;;8.95;4.47;;;4.70;99.90;;;;;;4804174;29;20119;-77
2022/10/26 03:18:42;;;;;;;4.50;4.10;;;4.70;99.90;;;;;;4806734;29;20047;-77
2022/10/26 03:21:10;;;;;;;5.70;5.07;;;4.80;99.90;;;;;;4802993;29;20090;-77
2022/10/26 03:23:38;;;;;;;6.75;4.93;;;4.70;99.90;;;;;;4805478;29;20493;-77
2022/10/26 03:26:05;;;;;;;10.75;5.45;;;4.70;99.90;;;;;;4804629;29;20063;-77
2022/10/26 03:28:33;;;;;;;5.50;5.00;;;4.70;99.90;;;;;;4807169;29;20047;-77
2022/10/26 03:31:00;;;;;;;4.93;4.32;;;4.70;99.90;;;;;;4815731;29;20059;-76
2022/10/26 03:33:27;;;;;;;7.30;5.00;;;4.70;99.90;;;;;;4804628;29;20463;-76
2022/10/26 03:35:57;;;;;;;6.90;5.13;;;4.70;99.90;;;;;;4790449;29;20055;-76
2022/10/26 03:38:24;;;;;;;8.10;4.97;;;4.70;99.90;;;;;;4805173;29;20059;-75
2022/10/26 03:40:53;;;;;;;4.32;3.90;;;4.70;99.90;;;;;;4801645;29;20054;-75
2022/10/26 03:43:20;;;;;;;5.78;4.78;;;4.70;99.90;;;;;;4801067;29;20175;-76
2022/10/26 03:45:47;;;;;;;6.90;4.28;;;4.70;99.90;;;;;;4805717;29;20047;-76
2022/10/26 03:48:14;;;;;;;5.05;4.25;;;4.70;99.90;;;;;;4804287;29;20054;-76
2022/10/26 03:50:41;;;;;;;5.05;4.25;;;4.80;99.90;;;;;;4791122;29;20062;-77
2022/10/26 03:53:08;;;;;;;6.20;5.60;;;4.80;99.90;;;;;;4799364;29;20566;-77
2022/10/26 03:55:36;;;;;;;6.93;4.95;;;4.80;99.90;;;;;;4804115;29;20058;-78
2022/10/26 03:58:05;;;;;;;7.50;5.15;;;4.90;99.90;;;;;;4803249;29;20520;-77
2022/10/26 04:00:32;;;;;;;7.40;6.07;;;4.90;99.90;;;;;;4801936;29;20050;-77
2022/10/26 04:03:00;;;;;;;7.20;5.13;;;4.90;99.90;;;;;;4800392;29;20061;-76
2022/10/26 04:05:28;;;;;;;8.95;5.68;;;5.00;99.90;;;;;;4802117;29;20062;-75
2022/10/26 04:07:57;;;;;;;9.43;6.60;;;5.00;99.90;;;;;;4800711;29;20053;-77
2022/10/26 04:10:26;;;;;;;8.02;5.63;;;5.00;99.90;;;;;;4802887;29;20145;-81
2022/10/26 04:12:54;;;;;;;8.43;6.10;;;5.00;99.90;;;;;;4804653;29;20504;-79
2022/10/26 04:15:23;;;;;;;9.95;6.45;;;5.10;99.90;;;;;;4806255;29;20051;-76
2022/10/26 04:17:58;;;;;;;10.38;6.20;;;5.10;99.90;;;;;;4803318;29;20054;-79
2022/10/26 04:20:26;;;;;;;8.23;6.28;;;5.00;99.90;;;;;;4796451;29;20100;-76
2022/10/26 04:23:01;;;;;;;8.30;6.20;;;5.00;99.90;;;;;;4796807;29;20062;-79
2022/10/26 04:25:30;;;;;;;9.18;6.35;;;5.10;99.90;;;;;;4801746;29;20058;-79
2022/10/26 04:27:57;;;;;;;8.55;6.47;;;5.00;99.90;;;;;;4787558;29;20117;-80
2022/10/26 04:30:28;;;;;;;12.30;7.28;;;5.00;99.90;;;;;;4805132;29;20079;-80
2022/10/26 04:32:56;;;;;;;8.73;6.57;;;5.00;99.90;;;;;;4819760;29;20050;-80
2022/10/26 04:35:27;;;;;;;10.13;7.75;;;5.00;99.90;;;;;;4791310;29;20055;-78
2022/10/26 04:37:58;;;;;;;17.05;7.10;;;5.10;99.90;;;;;;4799864;29;20058;-79
2022/10/26 04:40:26;;;;;;;9.00;6.72;;;5.10;99.90;;;;;;4797974;29;20154;-77
2022/10/26 04:42:53;;;;;;;8.65;6.45;;;5.10;99.90;;;;;;4798052;29;20505;-77
2022/10/26 04:45:21;;;;;;;9.48;7.00;;;5.10;99.90;;;;;;4799227;29;20109;-82
2022/10/26 04:47:59;;;;;;;11.13;6.53;;;5.20;99.90;;;;;;4801091;29;20074;-86
2022/10/26 04:50:26;;;;;;;13.02;7.60;;;5.20;99.90;;;;;;4803441;29;20486;-79
2022/10/26 04:52:59;;;;;;;13.60;8.43;;;5.30;99.90;;;;;;4803551;29;20059;-81
2022/10/26 04:55:27;;;;;;;12.43;6.47;;;5.30;99.90;;;;;;4801259;29;20566;-80
2022/10/26 04:57:58;;;;;;;12.73;7.90;;;5.30;99.90;;;;;;4802886;29;20055;-81
2022/10/26 05:00:25;;;;;;;11.35;7.68;;;5.30;99.90;;;;;;4817202;29;20071;-80
2022/10/26 05:03:01;;;;;;;12.75;8.07;;;5.30;99.90;;;;;;4802258;29;20051;-76
2022/10/26 05:05:29;;;;;;;13.93;8.07;;;5.20;99.90;;;;;;4802347;29;20093;-79
2022/10/26 05:07:56;;;;;;;16.77;8.65;;;5.30;99.90;;;;;;4806058;29;20304;-84
2022/10/26 05:10:24;;;;;;;13.77;8.27;;;5.30;99.90;;;;;;4806838;29;20047;-82
2022/10/26 05:12:52;;;;;;;11.82;8.10;;;5.30;99.90;;;;;;4806126;29;20055;-82
2022/10/26 05:15:19;;;;;;;13.20;8.13;;;5.30;99.90;;;;;;4806723;29;20139;-85
2022/10/26 05:17:48;;;;;;;16.45;8.77;;;5.20;99.90;;;;;;4807303;29;20051;-83
2022/10/26 05:20:18;;;;;;;10.32;7.90;;;5.30;99.90;;;;;;4805764;29;20686;-85
2022/10/26 05:22:53;;;;;;;12.88;7.90;;;5.30;99.90;;;;;;4805721;29;20066;-84
2022/10/26 05:25:20;;;;;;;15.63;8.02;;;5.20;99.90;;;;;;4787253;29;20207;-84
2022/10/26 05:27:48;;;;;;;19.08;8.45;;;5.20;99.90;;;;;;4789171;29;20079;-83
2022/10/26 05:30:15;;;;;;;16.77;9.18;;;5.30;99.90;;;;;;4786311;29;20062;-82
2022/10/26 05:32:43;;;;;;;11.27;8.15;;;5.30;99.90;;;;;;4798415;29;20067;-84
2022/10/26 05:35:10;;;;;;;13.25;8.13;;;5.30;99.90;;;;;;4801149;29;20051;-84
2022/10/26 05:37:39;;;;;;;11.25;8.73;;;5.30;99.90;;;;;;4784237;29;20054;-84
2022/10/26 05:40:07;;;;;;;15.18;8.95;;;5.40;99.90;;;;;;4792947;29;20571;-83
2022/10/26 05:42:34;;;;;;;10.13;8.18;;;5.40;99.90;;;;;;4801141;29;20051;-84
2022/10/26 05:45:02;;;;;;;10.38;7.95;;;5.40;99.90;;;;;;4820068;29;20051;-85
2022/10/26 05:47:33;;;;;;;13.48;9.27;;;5.50;99.90;;;;;;4813990;29;20058;-85
2022/10/26 05:50:01;;;;;;;15.45;9.02;;;5.50;99.90;;;;;;4816422;29;20057;-86
2022/10/26 05:52:28;;;;;;;12.07;8.40;;;5.50;99.90;;;;;;4807994;29;20157;-85
2022/10/26 05:54:58;;;;;;;11.60;7.95;;;5.40;99.90;;;;;;4806950;29;20087;-86
2022/10/26 05:57:26;;;;;;;8.02;7.03;;;5.40;99.90;;;;;;4801500;29;20081;-85
2022/10/26 05:59:53;;;;;;;11.00;7.22;;;5.40;99.90;;;;;;4812131;29;20364;-86
2022/10/26 06:02:33;;;;;;;8.20;6.95;;;5.40;99.90;;;;;;4812723;29;20086;-85
2022/10/26 06:05:05;;;;;;;9.80;7.18;;;5.50;99.90;;;;;;4800284;29;20055;-84
2022/10/26 06:07:33;;;;;;;9.95;7.10;;;5.50;99.90;;;;;;4805413;29;20512;-81
2022/10/26 06:10:02;;;;;;;9.73;7.13;;;5.50;99.90;;;;;;4803121;29;20115;-83
2022/10/26 06:12:30;;;;;;;9.40;6.80;;;5.50;99.90;;;;;;4806069;29;20516;-85
2022/10/26 06:14:58;;;;;;;10.18;7.10;;;5.60;99.90;;;;;;4789309;29;20054;-84
2022/10/26 06:17:43;;;;;;;11.80;7.60;;;5.60;99.90;;;;;;4803666;29;20070;-83
2022/10/26 06:20:26;;;;;;;12.15;7.95;;;5.60;99.90;;;;;;4804995;29;20078;-83
2022/10/26 06:23:07;;;;;;;8.90;7.68;;;5.70;99.90;;;;;;4805794;29;20058;-86
2022/10/26 06:25:45;;;;;;;10.73;7.20;;;5.70;99.90;;;;;;4811318;29;20109;-85
2022/10/26 06:28:25;;;;;;;12.52;8.18;;;5.70;99.90;;;;;;4801972;29;20059;-83
2022/10/26 06:30:53;;;;;;;10.55;7.72;;;5.70;99.90;;;;;;4798013;29;20065;-80
2022/10/26 06:33:20;;;;;;;14.65;9.50;;;5.70;99.90;;;;;;4798939;29;20063;-79
2022/10/26 06:35:58;;;;;;;11.10;8.27;;;5.70;99.90;;;;;;4800038;29;20062;-80
2022/10/26 06:38:30;;;;;;;12.13;9.02;;;5.80;99.90;;;;;;4751032;29;20050;-79
2022/10/26 06:40:59;;;;;;;14.10;10.02;;;5.80;99.90;;;;;;4795505;29;20126;-78
2022/10/26 06:43:30;;;;;;;16.85;10.55;;;5.80;99.90;;;;;;4816640;29;20059;-79
2022/10/26 06:46:07;;;;;;;19.90;10.30;;;5.90;99.90;;;;;;4796679;29;20066;-78
2022/10/26 06:48:47;;;;;;;16.48;10.82;;;5.90;99.90;;;;;;4798242;29;20146;-79
2022/10/26 06:51:17;;;;;;;21.92;10.95;;;5.90;99.90;;;;;;4800436;29;20143;-79
2022/10/26 06:53:53;;;;;;;20.50;11.90;;;6.00;99.90;;;;;;4798007;29;20804;-80
2022/10/26 06:56:23;;;;;;;18.95;11.85;;;5.90;99.90;;;;;;4803454;29;20053;-79
2022/10/26 06:58:53;;;;;;;19.00;11.43;;;6.00;99.90;;;;;;4816978;29;20050;-83
2022/10/26 07:01:21;;;;;;;19.05;12.30;;;6.00;99.90;;;;;;4817910;29;20599;-84
2022/10/26 07:03:48;;;;;;;18.10;12.07;;;6.10;99.90;;;;;;4803254;29;20049;-85
2022/10/26 07:06:16;;;;;;;22.60;12.57;;;6.10;99.90;;;;;;4817161;29;20051;-84
2022/10/26 07:08:43;;;;;;;19.08;11.77;;;6.20;99.90;;;;;;4811936;29;20043;-83
2022/10/26 07:11:11;;;;;;;18.08;12.13;;;6.10;99.90;;;;;;4829888;29;20046;-85
2022/10/26 07:13:39;;;;;;;25.77;12.20;;;6.10;99.90;;;;;;4803745;29;20050;-84
2022/10/26 07:16:07;;;;;;;19.45;12.05;;;6.10;99.90;;;;;;4802342;29;20088;-84
2022/10/26 07:18:37;;;;;;;20.38;13.27;;;6.20;99.90;;;;;;4814677;29;20078;-86
2022/10/26 07:21:05;;;;;;;18.83;12.70;;;6.20;99.90;;;;;;4820380;29;20445;-83
2022/10/26 07:23:32;;;;;;;22.60;13.55;;;6.20;99.90;;;;;;4797870;29;20047;-82
2022/10/26 07:26:00;;;;;;;19.88;13.60;;;6.20;99.90;;;;;;4802739;29;20027;-82
2022/10/26 07:28:27;;;;;;;22.65;13.98;;;6.20;99.90;;;;;;4801363;29;20038;-81
2022/10/26 07:30:58;;;;;;;24.65;13.40;;;6.30;99.90;;;;;;4799460;29;20141;-82
2022/10/26 07:33:25;;;;;;;23.63;14.18;;;6.30;99.90;;;;;;4801649;29;20440;-82
2022/10/26 07:35:54;;;;;;;24.35;14.23;;;6.30;99.90;;;;;;4799664;29;20043;-83
2022/10/26 07:38:21;;;;;;;25.15;14.77;;;6.30;99.90;;;;;;4799339;29;20549;-82
2022/10/26 07:40:49;;;;;;;23.58;15.02;;;6.40;99.90;;;;;;4798392;29;20055;-80
2022/10/26 07:43:16;;;;;;;20.02;13.18;;;6.40;99.90;;;;;;4810365;29;20063;-78
2022/10/26 07:45:44;;;;;;;23.13;13.20;;;6.40;99.90;;;;;;4797017;29;20059;-78
2022/10/26 07:48:12;;;;;;;19.90;13.30;;;6.50;99.90;;;;;;4800832;29;20051;-78
2022/10/26 07:50:40;;;;;;;23.40;13.18;;;6.50;99.90;;;;;;4800648;29;20042;-79
2022/10/26 07:53:07;;;;;;;20.83;13.02;;;6.60;99.90;;;;;;4801000;29;20057;-80
2022/10/26 07:55:34;;;;;;;22.08;13.23;;;6.70;99.90;;;;;;4798973;29;20382;-81
2022/10/26 07:58:01;;;;;;;23.48;13.45;;;6.80;99.90;;;;;;4802653;29;20404;-79
2022/10/26 08:00:29;;;;;;;24.02;13.25;;;6.80;99.90;;;;;;4801120;29;20057;-80
2022/10/26 08:02:57;;;;;;;22.42;13.68;;;6.80;99.90;;;;;;4802058;29;20054;-79
2022/10/26 08:05:27;;;;;;;22.90;12.15;;;6.90;99.90;;;;;;4820358;29;20613;-81
2022/10/26 08:07:54;;;;;;;21.48;11.95;;;6.90;99.90;;;;;;4802211;29;20123;-81
2022/10/26 08:10:21;;;;;;;19.38;11.45;;;6.90;99.90;;;;;;4805975;29;20051;-80
2022/10/26 08:12:48;;;;;;;18.70;11.70;;;6.90;99.90;;;;;;4801754;29;20054;-81
2022/10/26 08:15:16;;;;;;;22.90;11.35;;;7.00;99.90;;;;;;4799851;29;20071;-80
2022/10/26 08:17:43;;;;;;;20.73;11.48;;;7.00;99.90;;;;;;4791333;29;20147;-77
2022/10/26 08:20:11;;;;;;;22.02;12.10;;;7.00;99.90;;;;;;4794182;29;20512;-79
2022/10/26 08:22:40;;;;;;;17.95;11.88;;;7.10;99.90;;;;;;4799355;29;20300;-79
2022/10/26 08:25:15;;;;;;;17.58;11.15;;;7.00;99.90;;;;;;4802822;29;20051;-79
2022/10/26 08:27:43;;;;;;;15.35;9.40;;;7.10;99.90;;;;;;4797450;29;20081;-79
2022/10/26 08:30:11;;;;;;;20.63;11.68;;;7.20;99.90;;;;;;4795377;29;20050;-79
2022/10/26 08:32:38;;;;;;;18.30;9.52;;;7.30;99.90;;;;;;4802250;29;20047;-83
2022/10/26 08:35:06;;;;;;;16.65;9.20;;;7.40;99.90;;;;;;4800021;29;20054;-80
2022/10/26 08:37:34;;;;;;;16.13;8.75;;;7.40;99.90;;;;;;4798079;29;20047;-79
2022/10/26 08:40:03;;;;;;;15.35;8.70;;;7.40;99.90;;;;;;4808674;29;20597;-78
2022/10/26 08:42:37;;;;;;;16.90;8.50;;;7.40;99.90;;;;;;4798255;29;20080;-77
2022/10/26 08:45:12;;;;;;;14.25;7.65;;;7.50;99.90;;;;;;4803071;29;20135;-78
2022/10/26 08:47:45;;;;;;;12.30;7.35;;;7.60;99.90;;;;;;4790025;29;20520;-79
2022/10/26 08:50:20;;;;;;;9.45;6.10;;;7.60;99.90;;;;;;4814497;29;20103;-78
2022/10/26 08:52:53;;;;;;;13.85;6.22;;;7.80;99.90;;;;;;4801713;29;20441;-79
2022/10/26 08:55:26;;;;;;;9.45;6.05;;;7.80;99.90;;;;;;4801073;29;20141;-78
2022/10/26 08:57:54;;;;;;;12.98;5.97;;;7.80;99.90;;;;;;4802513;29;20055;-79
2022/10/26 09:00:25;;;;;;;16.30;6.22;;;7.80;99.90;;;;;;4805861;29;20049;-79
2022/10/26 09:02:53;;;;;;;15.77;6.75;;;7.80;99.90;;;;;;4801554;29;20093;-78
2022/10/26 09:05:28;;;;;;;14.05;6.50;;;7.90;99.90;;;;;;4797028;29;20171;-79
2022/10/26 09:08:04;;;;;;;14.35;7.78;;;7.90;99.90;;;;;;4797389;29;20192;-81
2022/10/26 09:10:39;;;;;;;14.65;7.05;;;8.00;99.90;;;;;;4792247;29;20062;-80
2022/10/26 09:13:16;;;;;;;11.02;6.40;;;8.00;99.90;;;;;;4793928;29;20050;-79
2022/10/26 09:15:57;;;;;;;13.35;6.20;;;8.00;99.90;;;;;;4790008;29;20089;-78
2022/10/26 09:18:35;;;;;;;11.15;5.80;;;8.00;99.90;;;;;;4791482;29;20461;-80
2022/10/26 09:21:17;;;;;;;11.52;6.32;;;8.00;99.90;;;;;;4788870;29;20521;-84
2022/10/26 09:23:55;;;;;;;16.75;6.82;;;8.10;99.90;;;;;;4780504;30;20059;-85
2022/10/26 09:26:31;;;;;;;14.23;6.95;;;8.10;99.90;;;;;;4775934;29;20051;-83
2022/10/26 09:29:02;;;;;;;13.27;7.18;;;8.20;99.90;;;;;;4784805;29;20207;-83
2022/10/26 09:31:39;;;;;;;13.70;6.63;;;8.20;99.90;;;;;;4778579;29;20058;-84
2022/10/26 09:34:14;;;;;;;10.00;5.55;;;8.20;99.90;;;;;;4768048;29;20062;-83
2022/10/26 09:36:41;;;;;;;15.80;6.30;;;8.20;99.90;;;;;;4805074;29;20058;-85
2022/10/26 09:39:18;;;;;;;11.68;6.15;;;8.20;99.90;;;;;;4805060;29;20525;-85
2022/10/26 09:41:54;;;;;;;14.02;6.38;;;8.30;99.90;;;;;;4784964;30;20116;-86
2022/10/26 09:44:26;;;;;;;11.30;7.20;;;8.20;99.90;;;;;;4786268;29;20471;-86
2022/10/26 09:47:01;;;;;;;19.75;6.35;;;8.20;99.90;;;;;;4806409;29;20062;-84
2022/10/26 09:49:40;;;;;;;17.63;7.05;;;8.30;99.90;;;;;;4820776;29;20088;-85
2022/10/26 09:52:12;;;;;;;13.73;6.70;;;8.30;99.90;;;;;;4775135;30;20057;-85
2022/10/26 09:54:39;;;;;;;14.57;8.52;;;8.30;99.90;;;;;;4798725;29;20099;-86
2022/10/26 09:57:08;;;;;;;15.10;6.57;;;8.30;99.90;;;;;;4807617;29;20059;-88
2022/10/26 09:59:55;;;;;;;16.15;8.10;;;8.30;99.90;;;;;;4793623;29;20059;-86
2022/10/26 10:02:44;;;;;;;14.50;6.70;;;8.30;99.90;;;;;;4791715;29;20112;-87
2022/10/26 10:05:29;;;;;;;17.00;8.52;;;8.40;99.90;;;;;;4796911;29;20066;-84
2022/10/26 10:08:17;;;;;;;21.65;7.35;;;8.40;99.90;;;;;;4792079;29;20389;-85
2022/10/26 10:10:59;;;;;;;12.85;7.63;;;8.40;99.90;;;;;;4780839;29;20047;-84
2022/10/26 10:13:33;;;;;;;17.63;8.90;;;8.40;99.90;;;;;;4777571;30;20151;-84
2022/10/26 10:16:05;;;;;;;15.50;7.70;;;8.50;99.90;;;;;;4813459;29;20058;-85
2022/10/26 10:18:34;;;;;;;17.95;7.60;;;8.50;99.90;;;;;;4799934;29;20062;-86
2022/10/26 10:21:04;;;;;;;17.02;8.35;;;8.60;99.90;;;;;;4787084;30;20067;-86
2022/10/26 10:23:34;;;;;;;10.88;7.85;;;8.60;99.90;;;;;;4790401;29;20055;-86
2022/10/26 10:26:11;;;;;;;16.42;7.03;;;8.60;99.90;;;;;;4787584;29;20065;-81
2022/10/26 10:28:42;;;;;;;14.63;7.68;;;8.60;99.90;;;;;;4782573;30;20059;-84
2022/10/26 10:31:21;;;;;;;22.45;8.25;;;8.70;99.90;;;;;;4785570;29;20143;-80
2022/10/26 10:33:51;;;;;;;14.18;7.53;;;8.70;99.90;;;;;;4770617;30;20086;-83
2022/10/26 10:36:21;;;;;;;17.20;7.32;;;8.70;99.90;;;;;;4792327;29;20123;-80
2022/10/26 10:38:51;;;;;;;18.27;7.85;;;8.80;99.90;;;;;;4783242;30;20524;-81
2022/10/26 10:41:22;;;;;;;12.70;8.60;;;8.80;99.90;;;;;;4783289;30;20071;-79
2022/10/26 10:43:53;;;;;;;20.83;9.00;;;8.90;99.90;;;;;;4798709;29;20159;-80
2022/10/26 10:46:24;;;;;;;18.00;8.63;;;8.90;99.90;;;;;;4783061;30;20127;-81
2022/10/26 10:49:02;;;;;;;15.52;8.32;;;9.00;99.90;;;;;;4769018;30;20047;-81
2022/10/26 10:51:36;;;;;;;21.55;10.00;;;9.10;99.90;;;;;;4787723;30;20426;-79
2022/10/26 10:54:05;;;;;;;23.45;9.25;;;9.10;99.90;;;;;;4796816;29;20106;-80
2022/10/26 10:56:41;;;;;;;21.63;10.10;;;9.10;99.90;;;;;;4798858;29;20150;-80
2022/10/26 10:59:50;;;;;;;22.88;9.48;;;9.20;99.90;;;;;;4779366;30;20069;-80
2022/10/26 11:02:40;;;;;;;15.63;8.60;;;9.20;99.90;;;;;;4786143;29;20059;-79
2022/10/26 11:05:21;;;;;;;25.33;9.90;;;9.30;99.90;;;;;;4778561;30;20096;-80
2022/10/26 11:07:54;;;;;;;24.02;10.40;;;9.20;99.90;;;;;;4782468;30;20051;-79
2022/10/26 11:10:26;;;;;;;17.77;8.75;;;9.20;99.90;;;;;;4793002;29;20055;-79
2022/10/26 11:12:58;;;;;;;19.88;9.30;;;9.30;99.90;;;;;;4788087;29;20410;-79
2022/10/26 11:15:31;;;;;;;22.88;9.75;;;9.30;99.90;;;;;;4784817;30;20410;-79
2022/10/26 11:18:06;;;;;;;19.45;8.90;;;9.40;99.90;;;;;;4788218;29;20063;-79
2022/10/26 11:20:39;;;;;;;18.40;8.40;;;9.40;99.90;;;;;;4804709;29;20050;-83
2022/10/26 11:23:11;;;;;;;25.13;10.23;;;9.30;99.90;;;;;;4793351;29;20094;-82
2022/10/26 11:25:45;;;;;;;20.63;9.38;;;9.30;99.90;;;;;;4784952;30;20112;-82
2022/10/26 11:28:17;;;;;;;22.25;8.55;;;9.30;99.90;;;;;;4790730;29;20063;-80
2022/10/26 11:30:50;;;;;;;28.67;9.03;;;9.30;99.90;;;;;;4787448;30;20051;-79
2022/10/26 11:33:23;;;;;;;17.67;9.10;;;9.30;99.90;;;;;;4787567;29;20386;-80
2022/10/26 11:35:56;;;;;;;12.80;8.35;;;9.30;99.90;;;;;;4791301;29;20054;-79
2022/10/26 11:38:30;;;;;;;14.10;8.43;;;9.30;99.90;;;;;;4787941;30;20063;-79
2022/10/26 11:41:03;;;;;;;17.38;9.50;;;9.30;99.90;;;;;;4788668;29;20257;-79
2022/10/26 11:43:38;;;;;;;20.42;10.13;;;9.30;99.90;;;;;;4789678;29;20430;-81
2022/10/26 11:46:13;;;;;;;25.27;9.98;;;9.30;99.90;;;;;;4785291;29;20532;-79
2022/10/26 11:48:47;;;;;;;22.08;9.38;;;9.20;99.90;;;;;;4788474;29;20066;-79
2022/10/26 11:51:20;;;;;;;12.52;8.27;;;9.20;99.90;;;;;;4791130;29;20074;-80
2022/10/26 11:53:48;;;;;;;14.70;7.95;;;9.20;99.90;;;;;;4798583;29;20832;-80
2022/10/26 11:56:25;;;;;;;16.70;8.50;;;9.30;99.90;;;;;;4799532;29;20518;-80
2022/10/26 11:58:53;;;;;;;16.58;7.40;;;9.30;99.90;;;;;;4796862;29;20070;-80
2022/10/26 12:01:22;;;;;;;18.45;9.23;;;9.40;99.90;;;;;;4788419;29;20051;-80
2022/10/26 12:03:53;;;;;;;16.52;8.52;;;9.50;99.90;;;;;;4788286;29;20094;-79
2022/10/26 12:06:25;;;;;;;19.33;10.43;;;9.50;99.90;;;;;;4786362;30;20059;-81
2022/10/26 12:08:59;;;;;;;16.67;8.85;;;9.60;99.90;;;;;;4795907;29;20062;-80
2022/10/26 12:11:37;;;;;;;22.48;11.65;;;9.50;99.90;;;;;;4789043;29;20055;-80
2022/10/26 12:14:15;;;;;;;22.20;10.70;;;9.60;99.90;;;;;;4785378;29;20055;-80
2022/10/26 12:16:51;;;;;;;26.52;10.55;;;9.60;99.90;;;;;;4789592;29;20066;-80
2022/10/26 12:19:26;;;;;;;20.08;11.18;;;9.60;99.90;;;;;;4783251;30;20067;-78
2022/10/26 12:21:54;;;;;;;23.40;11.50;;;9.60;99.90;;;;;;4797910;29;20083;-81
2022/10/26 12:24:32;;;;;;;24.38;11.88;;;9.50;99.90;;;;;;4790862;29;20051;-83
2022/10/26 12:27:00;;;;;;;20.33;11.15;;;9.50;99.90;;;;;;4789649;30;20059;-80
2022/10/26 12:29:36;;;;;;;22.13;11.73;;;9.60;99.90;;;;;;4790904;29;20480;-82
2022/10/26 12:32:49;;;;;;;18.00;10.85;;;9.70;99.90;;;;;;4786999;29;20055;-81
2022/10/26 12:35:40;;;;;;;22.83;12.43;;;9.70;99.90;;;;;;4791983;29;20055;-85
2022/10/26 12:38:48;;;;;;;22.10;10.82;;;9.70;99.90;;;;;;4777873;29;20048;-84
2022/10/26 12:41:24;;;;;;;20.63;12.13;;;9.70;99.90;;;;;;4785911;29;20505;-85
2022/10/26 12:43:56;;;;;;;19.15;10.85;;;9.70;99.90;;;;;;4787612;30;20051;-85
2022/10/26 12:46:43;;;;;;;21.52;11.68;;;9.80;99.90;;;;;;4789538;29;20051;-84
2022/10/26 12:49:50;;;;;;;24.80;12.38;;;9.90;99.90;;;;;;4790291;29;20541;-80
2022/10/26 12:52:30;;;;;;;29.23;14.82;;;9.80;99.90;;;;;;4775651;30;20540;-78
2022/10/26 12:55:34;;;;;;;26.50;14.38;;;9.70;99.90;;;;;;4787950;29;20517;-78
2022/10/26 12:58:19;;;;;;;43.60;25.10;;;9.70;99.90;;;;;;4804053;29;20050;-79
2022/10/26 13:01:08;;;;;;;34.40;19.85;;;9.70;99.90;;;;;;4797689;29;20543;-80
2022/10/26 13:03:46;;;;;;;27.02;14.00;;;9.70;99.90;;;;;;4808897;29;20055;-79
2022/10/26 13:06:37;;;;;;;32.42;14.82;;;9.70;99.90;;;;;;4786947;29;20134;-80
2022/10/26 13:09:16;;;;;;;26.38;13.75;;;9.80;99.90;;;;;;4788522;29;20432;-79
2022/10/26 13:11:47;;;;;;;26.50;13.73;;;9.70;99.90;;;;;;4800964;29;20065;-77
2022/10/26 13:14:24;;;;;;;31.65;14.27;;;9.70;99.90;;;;;;4787166;29;20085;-76